createdAt,value
2022-11-16T00:02:14.502Z,3.00
2022-11-16T00:04:41.701Z,2.37
2022-11-16T00:07:08.716Z,3.17
2022-11-16T00:09:35.420Z,3.15
2022-11-16T00:12:04.379Z,3.10
2022-11-16T00:14:35.463Z,3.25
2022-11-16T00:17:02.289Z,3.50
2022-11-16T00:19:29.366Z,2.90
2022-11-16T00:21:56.058Z,3.10
2022-11-16T00:24:23.742Z,3.33
2022-11-16T00:26:51.270Z,3.20
2022-11-16T00:29:21.755Z,3.03
2022-11-16T00:31:49.123Z,3.20
2022-11-16T00:34:15.905Z,3.50
2022-11-16T00:36:42.583Z,3.38
2022-11-16T00:39:13.416Z,3.25
2022-11-16T00:41:40.723Z,3.23
2022-11-16T00:44:07.742Z,3.13
2022-11-16T00:46:34.574Z,3.40
2022-11-16T00:49:01.177Z,3.60
2022-11-16T00:51:27.734Z,3.70
2022-11-16T00:53:54.324Z,4.00
2022-11-16T00:56:20.915Z,4.07
2022-11-16T00:58:47.513Z,3.97
2022-11-16T01:01:14.604Z,4.32
2022-11-16T01:03:41.637Z,4.00
2022-11-16T01:06:10.607Z,4.00
2022-11-16T01:08:39.296Z,3.75
2022-11-16T01:11:25.957Z,3.97
2022-11-16T01:13:53.140Z,3.97
2022-11-16T01:16:21.763Z,3.60
2022-11-16T01:18:49.638Z,4.07
2022-11-16T01:21:16.756Z,3.50
2022-11-16T01:23:43.483Z,4.00
2022-11-16T01:26:10.136Z,4.10
2022-11-16T01:28:37.112Z,3.92
2022-11-16T01:31:03.854Z,4.23
2022-11-16T01:33:30.458Z,4.15
2022-11-16T01:35:57.061Z,3.72
2022-11-16T01:38:28.442Z,4.38
2022-11-16T01:40:56.267Z,4.78
2022-11-16T01:43:25.552Z,4.20
2022-11-16T01:45:52.564Z,4.55
2022-11-16T01:48:29.699Z,4.20
2022-11-16T01:50:57.293Z,4.18
2022-11-16T01:53:24.627Z,3.90
2022-11-16T01:55:51.397Z,3.90
2022-11-16T01:58:23.261Z,4.10
2022-11-16T02:00:50.291Z,4.10
2022-11-16T02:03:21.058Z,4.00
2022-11-16T02:06:25.107Z,3.85
2022-11-16T02:09:22.378Z,3.63
2022-11-16T02:12:07.734Z,4.72
2022-11-16T02:14:53.071Z,4.00
2022-11-16T02:17:28.775Z,4.03
2022-11-16T02:20:25.927Z,4.35
2022-11-16T02:23:01.537Z,3.90
2022-11-16T02:25:34.054Z,4.40
2022-11-16T02:28:22.746Z,4.40
2022-11-16T02:30:50.836Z,4.53
2022-11-16T02:33:21.703Z,4.07
2022-11-16T02:35:53.748Z,4.50
2022-11-16T02:38:23.547Z,4.22
2022-11-16T02:40:54.100Z,4.00
2022-11-16T02:43:42.229Z,4.20
2022-11-16T02:46:26.409Z,4.03
2022-11-16T02:48:55.124Z,3.90
2022-11-16T02:51:22.048Z,4.97
2022-11-16T02:54:04.721Z,4.13
2022-11-16T02:56:42.499Z,4.28
2022-11-16T02:59:13.023Z,4.07
2022-11-16T03:01:47.684Z,4.27
2022-11-16T03:04:22.321Z,4.03
2022-11-16T03:06:51.537Z,4.05
2022-11-16T03:09:22.205Z,4.22
2022-11-16T03:12:00.656Z,3.88
2022-11-16T03:14:53.687Z,3.73
2022-11-16T03:17:46.294Z,4.57
2022-11-16T03:20:20.746Z,4.47
2022-11-16T03:22:57.315Z,4.00
2022-11-16T03:25:26.981Z,4.68
2022-11-16T03:27:55.798Z,4.10
2022-11-16T03:30:28.160Z,4.28
2022-11-16T03:33:09.998Z,4.10
2022-11-16T03:35:59.752Z,4.55
2022-11-16T03:38:27.596Z,4.07
2022-11-16T03:40:59.936Z,4.40
2022-11-16T03:43:27.427Z,4.55
2022-11-16T03:45:54.601Z,4.20
2022-11-16T03:48:21.167Z,4.28
2022-11-16T03:50:47.852Z,4.38
2022-11-16T03:53:14.429Z,4.07
2022-11-16T03:55:44.490Z,4.07
2022-11-16T03:58:13.715Z,4.35
2022-11-16T04:00:40.319Z,4.55
2022-11-16T04:03:07.189Z,4.38
2022-11-16T04:05:52.309Z,4.33
2022-11-16T04:08:37.682Z,4.55
2022-11-16T04:11:22.948Z,5.03
2022-11-16T04:14:09.333Z,4.75
2022-11-16T04:16:54.716Z,4.47
2022-11-16T04:19:39.957Z,4.50
2022-11-16T04:22:32.322Z,4.13
2022-11-16T04:25:14.409Z,4.40
2022-11-16T04:27:59.478Z,4.80
2022-11-16T04:30:26.412Z,4.32
2022-11-16T04:33:11.415Z,3.93
2022-11-16T04:35:56.776Z,4.32
2022-11-16T04:38:23.461Z,4.38
2022-11-16T04:40:50.052Z,4.88
2022-11-16T04:43:17.876Z,4.28
2022-11-16T04:46:03.057Z,4.67
2022-11-16T04:48:29.657Z,4.50
2022-11-16T04:50:56.234Z,4.78
2022-11-16T04:53:26.992Z,4.32
2022-11-16T04:55:57.993Z,4.72
2022-11-16T04:58:27.160Z,5.03
2022-11-16T05:00:53.940Z,4.70
2022-11-16T05:03:20.584Z,4.80
2022-11-16T05:05:49.819Z,4.75
2022-11-16T05:08:16.396Z,4.63
2022-11-16T05:10:43.041Z,4.50
2022-11-16T05:13:09.624Z,4.50
2022-11-16T05:15:36.233Z,4.50
2022-11-16T05:18:02.795Z,4.75
2022-11-16T05:20:48.192Z,4.65
2022-11-16T05:23:33.592Z,4.37
2022-11-16T05:26:00.162Z,4.63
2022-11-16T05:28:26.767Z,4.55
2022-11-16T05:30:53.335Z,4.13
2022-11-16T05:33:19.925Z,4.30
2022-11-16T05:35:50.500Z,5.30
2022-11-16T05:38:17.721Z,4.90
2022-11-16T05:40:44.581Z,5.00
2022-11-16T05:43:11.170Z,4.72
2022-11-16T05:45:37.767Z,4.70
2022-11-16T05:48:04.473Z,4.43
2022-11-16T05:50:31.125Z,4.43
2022-11-16T05:52:57.682Z,4.38
2022-11-16T05:55:24.271Z,4.60
2022-11-16T05:57:50.835Z,4.82
2022-11-16T06:00:17.811Z,4.60
2022-11-16T06:02:44.489Z,4.32
2022-11-16T06:05:11.146Z,4.57
2022-11-16T06:07:37.761Z,4.53
2022-11-16T06:10:04.729Z,4.35
2022-11-16T06:12:31.327Z,4.03
2022-11-16T06:14:57.904Z,4.70
2022-11-16T06:17:24.548Z,4.32
2022-11-16T06:19:51.127Z,4.18
2022-11-16T06:22:17.707Z,4.43
2022-11-16T06:24:44.312Z,4.70
2022-11-16T06:27:10.882Z,5.18
2022-11-16T06:29:37.460Z,4.75
2022-11-16T06:32:04.208Z,5.00
2022-11-16T06:34:30.821Z,4.63
2022-11-16T06:36:57.419Z,4.23
2022-11-16T06:39:23.998Z,4.97
2022-11-16T06:41:50.581Z,5.03
2022-11-16T06:44:17.183Z,4.55
2022-11-16T06:46:43.760Z,4.38
2022-11-16T06:49:10.365Z,4.13
2022-11-16T06:51:36.988Z,4.10
2022-11-16T06:54:03.717Z,4.45
2022-11-16T06:56:30.308Z,4.45
2022-11-16T06:58:57.270Z,4.40
2022-11-16T07:01:23.960Z,4.23
2022-11-16T07:03:50.767Z,4.82
2022-11-16T07:06:17.461Z,4.40
2022-11-16T07:08:44.152Z,5.05
2022-11-16T07:11:11.222Z,4.22
2022-11-16T07:13:38.530Z,4.67
2022-11-16T07:16:06.848Z,4.40
2022-11-16T07:18:38.763Z,4.68
2022-11-16T07:21:16.100Z,5.00
2022-11-16T07:23:43.397Z,4.40
2022-11-16T07:26:10.729Z,5.20
2022-11-16T07:28:40.882Z,5.00
2022-11-16T07:31:11.881Z,4.65
2022-11-16T07:33:38.648Z,4.70
2022-11-16T07:36:07.730Z,4.32
2022-11-16T07:38:34.767Z,4.67
2022-11-16T07:41:10.336Z,4.38
2022-11-16T07:43:36.992Z,4.55
2022-11-16T07:46:44.534Z,4.80
2022-11-16T07:48:55.179Z,4.55
2022-11-16T07:51:21.758Z,4.77
2022-11-16T07:53:48.371Z,4.40
2022-11-16T07:56:14.939Z,4.70
2022-11-16T07:58:41.525Z,4.45
2022-11-16T08:01:11.242Z,4.75
2022-11-16T08:03:39.061Z,4.70
2022-11-16T08:06:07.258Z,4.97
2022-11-16T08:08:34.112Z,4.75
2022-11-16T08:11:02.408Z,5.10
2022-11-16T08:13:32.021Z,4.80
2022-11-16T08:16:02.400Z,4.37
2022-11-16T08:18:29.827Z,5.00
2022-11-16T08:20:59.002Z,4.72
2022-11-16T08:23:25.764Z,5.10
2022-11-16T08:25:52.340Z,4.68
2022-11-16T08:28:18.943Z,4.87
2022-11-16T08:30:48.432Z,5.10
2022-11-16T08:33:20.940Z,5.15
2022-11-16T08:35:48.337Z,5.60
2022-11-16T08:38:15.057Z,4.75
2022-11-16T08:40:41.923Z,4.97
2022-11-16T08:43:08.535Z,4.97
2022-11-16T08:45:35.108Z,4.97
2022-11-16T08:48:04.726Z,5.60
2022-11-16T08:50:44.170Z,5.20
2022-11-16T08:53:18.353Z,5.00
2022-11-16T08:55:44.987Z,4.82
2022-11-16T08:58:11.828Z,4.85
2022-11-16T09:00:38.419Z,4.88
2022-11-16T09:03:05.021Z,4.78
2022-11-16T09:05:31.622Z,5.30
2022-11-16T09:07:58.539Z,4.85
2022-11-16T09:10:26.053Z,5.32
2022-11-16T09:12:52.971Z,4.82
2022-11-16T09:15:19.615Z,5.32
2022-11-16T09:17:46.343Z,5.10
2022-11-16T09:20:12.965Z,5.43
2022-11-16T09:22:39.545Z,5.95
2022-11-16T09:25:06.907Z,5.40
2022-11-16T09:27:33.502Z,5.30
2022-11-16T09:30:00.060Z,5.03
2022-11-16T09:32:26.659Z,5.30
2022-11-16T09:34:53.827Z,5.53
2022-11-16T09:37:20.417Z,5.32
2022-11-16T09:39:46.975Z,5.57
2022-11-16T09:42:29.080Z,5.10
2022-11-16T09:45:09.335Z,4.70
2022-11-16T09:47:44.476Z,5.00
2022-11-16T09:50:26.315Z,4.80
2022-11-16T09:52:55.729Z,5.25
2022-11-16T09:55:24.730Z,4.83
2022-11-16T09:57:53.680Z,5.43
2022-11-16T10:00:25.271Z,4.65
2022-11-16T10:03:06.061Z,5.35
2022-11-16T10:05:39.118Z,5.35
2022-11-16T10:08:45.908Z,4.27
2022-11-16T10:11:18.297Z,5.25
2022-11-16T10:14:04.181Z,5.38
2022-11-16T10:16:49.408Z,5.13
2022-11-16T10:19:42.186Z,4.78
2022-11-16T10:22:33.705Z,4.77
2022-11-16T10:25:09.044Z,4.88
2022-11-16T10:28:05.907Z,5.05
2022-11-16T10:30:40.186Z,5.60
2022-11-16T10:33:16.465Z,5.18
2022-11-16T10:35:59.099Z,5.60
2022-11-16T10:38:32.687Z,4.93
2022-11-16T10:41:04.868Z,5.47
2022-11-16T10:43:33.128Z,5.10
2022-11-16T10:46:22.923Z,5.30
2022-11-16T10:49:04.560Z,5.43
2022-11-16T10:51:31.134Z,5.18
2022-11-16T10:53:57.723Z,5.28
2022-11-16T10:56:37.320Z,4.60
2022-11-16T10:59:12.424Z,4.82
2022-11-16T11:01:43.663Z,4.80
2022-11-16T11:04:30.137Z,5.15
2022-11-16T11:07:00.736Z,5.03
2022-11-16T11:09:35.283Z,4.18
2022-11-16T11:12:32.487Z,5.13
2022-11-16T11:15:00.675Z,4.80
2022-11-16T11:17:28.446Z,5.18
2022-11-16T11:19:58.895Z,4.90
2022-11-16T11:22:25.670Z,5.15
2022-11-16T11:24:52.499Z,4.90
2022-11-16T11:27:24.908Z,5.20
2022-11-16T11:29:54.264Z,4.95
2022-11-16T11:32:24.520Z,5.40
2022-11-16T11:34:54.917Z,5.05
2022-11-16T11:37:25.949Z,5.05
2022-11-16T11:40:23.527Z,4.53
2022-11-16T11:43:18.937Z,4.90
2022-11-16T11:45:50.013Z,4.50
2022-11-16T11:48:25.733Z,4.60
2022-11-16T11:51:28.359Z,5.40
2022-11-16T11:53:59.036Z,5.07
2022-11-16T11:56:27.196Z,4.57
2022-11-16T11:58:54.118Z,4.60
2022-11-16T12:01:50.359Z,4.97
2022-11-16T12:04:54.751Z,4.70
2022-11-16T12:07:30.445Z,4.70
2022-11-16T12:10:26.353Z,5.13
2022-11-16T12:13:02.281Z,5.00
2022-11-16T12:15:43.908Z,4.93
2022-11-16T12:18:35.976Z,4.90
2022-11-16T12:21:13.113Z,4.70
2022-11-16T12:24:06.823Z,4.75
2022-11-16T12:26:51.609Z,5.00
2022-11-16T12:29:33.166Z,4.35
2022-11-16T12:32:33.756Z,4.70
2022-11-16T12:35:35.855Z,4.70
2022-11-16T12:38:10.877Z,5.30
2022-11-16T12:41:02.283Z,4.97
2022-11-16T12:43:51.480Z,4.60
2022-11-16T12:46:29.947Z,5.18
2022-11-16T12:49:27.505Z,5.03
2022-11-16T12:52:06.080Z,4.60
2022-11-16T12:55:19.217Z,5.00
2022-11-16T12:58:02.711Z,4.72
2022-11-16T13:00:32.766Z,4.50
2022-11-16T13:03:24.090Z,4.53
2022-11-16T13:06:03.741Z,4.43
2022-11-16T13:09:07.707Z,4.18
2022-11-16T13:11:44.284Z,4.63
2022-11-16T13:14:20.389Z,4.50
2022-11-16T13:16:47.821Z,4.27
2022-11-16T13:19:15.932Z,4.95
2022-11-16T13:22:06.201Z,4.63
2022-11-16T13:24:44.627Z,4.72
2022-11-16T13:27:28.746Z,4.95
2022-11-16T13:30:18.614Z,4.90
2022-11-16T13:32:54.202Z,4.57
2022-11-16T13:35:21.024Z,4.72
2022-11-16T13:37:49.264Z,4.30
2022-11-16T13:40:32.857Z,4.32
2022-11-16T13:43:14.643Z,4.53
2022-11-16T13:45:49.063Z,4.30
2022-11-16T13:48:20.691Z,4.70
2022-11-16T13:50:53.471Z,4.88
2022-11-16T13:56:25.619Z,3.80
2022-11-16T13:58:55.757Z,4.35
2022-11-16T14:01:23.834Z,4.63
2022-11-16T14:03:51.940Z,4.30
2022-11-16T14:06:24.203Z,4.47
2022-11-16T14:08:50.812Z,4.83
2022-11-16T14:11:32.430Z,4.18
2022-11-16T14:14:01.567Z,4.63
2022-11-16T14:16:29.124Z,4.25
2022-11-16T14:18:58.119Z,4.45
2022-11-16T14:21:48.799Z,4.03
2022-11-16T14:24:24.268Z,4.70
2022-11-16T14:27:17.484Z,4.22
2022-11-16T14:29:47.020Z,3.90
2022-11-16T14:32:26.090Z,4.00
2022-11-16T14:34:55.495Z,3.87
2022-11-16T14:37:22.021Z,3.92
2022-11-16T14:39:50.673Z,4.07
2022-11-16T14:42:21.956Z,4.40
2022-11-16T14:44:49.789Z,4.25
2022-11-16T14:47:25.543Z,4.30
2022-11-16T14:49:53.390Z,4.03
2022-11-16T14:52:31.494Z,4.20
2022-11-16T14:55:01.891Z,4.20
2022-11-16T14:57:28.698Z,4.18
2022-11-16T15:00:30.254Z,4.17
2022-11-16T15:03:02.391Z,4.10
2022-11-16T15:05:34.070Z,3.92
2022-11-16T15:08:01.567Z,3.75
2022-11-16T15:10:29.008Z,3.80
2022-11-16T15:12:56.694Z,3.77
2022-11-16T15:15:26.768Z,3.88
2022-11-16T15:18:07.265Z,4.00
2022-11-16T15:20:39.228Z,4.10
2022-11-16T15:23:14.021Z,3.88
2022-11-16T15:25:52.962Z,3.97
2022-11-16T15:28:26.114Z,3.95
2022-11-16T15:31:09.610Z,4.07
2022-11-16T15:33:42.962Z,3.55
2022-11-16T15:36:25.731Z,3.92
2022-11-16T15:38:55.426Z,3.77
2022-11-16T15:41:23.103Z,4.10
2022-11-16T15:44:13.290Z,3.75
2022-11-16T15:46:41.756Z,3.50
2022-11-16T15:49:30.226Z,3.58
2022-11-16T15:52:00.695Z,3.80
2022-11-16T15:54:51.381Z,3.72
2022-11-16T15:57:18.858Z,4.30
2022-11-16T15:59:49.998Z,3.67
2022-11-16T16:02:21.321Z,4.00
2022-11-16T16:04:47.897Z,4.20
2022-11-16T16:07:38.132Z,3.80
2022-11-16T16:10:20.009Z,3.75
2022-11-16T16:12:54.194Z,4.32
2022-11-16T16:15:34.039Z,3.72
2022-11-16T16:18:02.081Z,3.43
2022-11-16T16:20:30.929Z,3.65
2022-11-16T16:23:13.379Z,3.97
2022-11-16T16:25:40.041Z,3.40
2022-11-16T16:28:06.594Z,4.22
2022-11-16T16:30:34.702Z,3.43
2022-11-16T16:33:02.258Z,3.60
2022-11-16T16:35:29.073Z,3.15
2022-11-16T16:38:00.852Z,3.53
2022-11-16T16:40:28.555Z,3.58
2022-11-16T16:42:56.106Z,3.80
2022-11-16T16:45:43.530Z,3.75
2022-11-16T16:48:12.567Z,3.38
2022-11-16T16:50:39.280Z,3.72
2022-11-16T16:53:05.927Z,3.53
2022-11-16T16:55:36.985Z,3.30
2022-11-16T16:58:04.111Z,3.50
2022-11-16T17:00:30.690Z,4.07
2022-11-16T17:02:58.477Z,3.38
2022-11-16T17:05:26.329Z,3.67
2022-11-16T17:07:56.323Z,3.03
2022-11-16T17:10:23.490Z,3.78
2022-11-16T17:12:53.617Z,3.70
2022-11-16T17:15:20.336Z,3.65
2022-11-16T17:17:47.003Z,4.22
2022-11-16T17:20:14.108Z,3.40
2022-11-16T17:22:41.889Z,3.60
2022-11-16T17:25:09.385Z,3.92
2022-11-16T17:27:36.051Z,3.55
2022-11-16T17:30:02.882Z,3.90
2022-11-16T17:32:30.048Z,3.50
2022-11-16T17:34:56.631Z,3.42
2022-11-16T17:37:23.227Z,3.63
2022-11-16T17:39:49.794Z,3.60
2022-11-16T17:42:16.445Z,3.20
2022-11-16T17:44:43.014Z,3.70
2022-11-16T17:47:09.807Z,2.95
2022-11-16T17:49:36.403Z,3.63
2022-11-16T17:52:04.520Z,3.67
2022-11-16T17:54:31.129Z,3.78
2022-11-16T17:56:57.736Z,3.83
2022-11-16T17:59:29.189Z,3.60
2022-11-16T18:01:58.031Z,3.70
2022-11-16T18:04:25.149Z,3.75
2022-11-16T18:06:51.863Z,3.45
2022-11-16T18:09:18.917Z,3.93
2022-11-16T18:11:45.639Z,3.58
2022-11-16T18:14:12.228Z,3.63
2022-11-16T18:16:41.124Z,3.60
2022-11-16T18:19:07.845Z,3.92
2022-11-16T18:21:41.365Z,3.73
2022-11-16T18:24:08.615Z,3.75
2022-11-16T18:26:35.393Z,3.90
2022-11-16T18:29:02.181Z,3.50
2022-11-16T18:31:29.814Z,3.50
2022-11-16T18:33:56.457Z,3.50
2022-11-16T18:36:23.083Z,3.45
2022-11-16T18:38:49.847Z,3.45
2022-11-16T18:41:21.461Z,3.35
2022-11-16T18:43:55.961Z,3.58
2022-11-16T18:46:27.533Z,3.60
2022-11-16T18:48:54.877Z,3.30
2022-11-16T18:51:22.552Z,3.50
2022-11-16T18:53:49.845Z,3.30
2022-11-16T18:56:17.100Z,3.67
2022-11-16T18:58:50.469Z,3.13
2022-11-16T19:01:20.463Z,3.20
2022-11-16T19:03:47.152Z,3.50
2022-11-16T19:06:17.082Z,3.50
2022-11-16T19:08:43.907Z,3.80
2022-11-16T19:11:12.918Z,2.90
2022-11-16T19:13:41.357Z,3.00
2022-11-16T19:16:09.271Z,3.20
2022-11-16T19:18:36.621Z,3.30
2022-11-16T19:21:24.638Z,3.45
2022-11-16T19:23:52.677Z,3.30
2022-11-16T19:26:21.393Z,3.10
2022-11-16T19:28:49.748Z,2.90
2022-11-16T19:31:30.222Z,3.17
2022-11-16T19:34:07.691Z,3.15
2022-11-16T19:36:36.094Z,3.10
2022-11-16T19:39:03.470Z,2.97
2022-11-16T19:41:30.112Z,3.08
2022-11-16T19:44:00.263Z,3.08
2022-11-16T19:46:28.577Z,3.00
2022-11-16T19:48:55.627Z,2.97
2022-11-16T19:51:24.328Z,3.33
2022-11-16T19:53:50.952Z,2.97
2022-11-16T19:56:18.935Z,3.03
2022-11-16T19:58:46.394Z,2.83
2022-11-16T20:01:21.035Z,3.03
2022-11-16T20:03:48.807Z,3.15
2022-11-16T20:06:23.961Z,3.33
2022-11-16T20:09:02.163Z,3.20
2022-11-16T20:11:30.314Z,2.95
2022-11-16T20:13:58.191Z,3.00
2022-11-16T20:16:27.404Z,2.88
2022-11-16T20:18:54.443Z,2.88
2022-11-16T20:21:28.791Z,3.00
2022-11-16T20:23:59.165Z,3.00
2022-11-16T20:26:30.292Z,2.73
2022-11-16T20:28:57.400Z,3.13
2022-11-16T20:31:29.113Z,3.40
2022-11-16T20:34:00.012Z,2.78
2022-11-16T20:36:29.254Z,3.30
2022-11-16T20:38:59.594Z,2.87
2022-11-16T20:41:30.522Z,2.97
2022-11-16T20:43:58.730Z,3.00
2022-11-16T20:46:27.220Z,2.85
2022-11-16T20:48:54.602Z,3.30
2022-11-16T20:51:21.214Z,3.40
2022-11-16T20:53:49.227Z,3.03
2022-11-16T20:56:17.140Z,3.10
2022-11-16T20:58:43.742Z,3.42
2022-11-16T21:01:16.768Z,2.95
2022-11-16T21:03:44.737Z,3.03
2022-11-16T21:06:12.649Z,3.10
2022-11-16T21:08:40.083Z,2.95
2022-11-16T21:11:15.151Z,3.15
2022-11-16T21:14:00.249Z,2.90
2022-11-16T21:16:26.805Z,2.43
2022-11-16T21:18:54.566Z,2.67
2022-11-16T21:21:21.407Z,3.03
2022-11-16T21:23:55.004Z,2.72
2022-11-16T21:26:27.064Z,2.75
2022-11-16T21:28:54.076Z,3.40
2022-11-16T21:31:22.937Z,2.92
2022-11-16T21:33:49.559Z,3.15
2022-11-16T21:36:18.002Z,2.40
2022-11-16T21:38:44.724Z,3.17
2022-11-16T21:41:12.575Z,2.63
2022-11-16T21:43:42.469Z,2.55
2022-11-16T21:46:20.504Z,2.83
2022-11-16T21:48:48.098Z,3.10
2022-11-16T21:51:17.253Z,3.00
2022-11-16T21:53:44.226Z,2.93
2022-11-16T21:56:14.692Z,2.83
2022-11-16T21:58:42.056Z,2.45
2022-11-16T22:01:09.651Z,3.08
2022-11-16T22:03:37.141Z,2.83
2022-11-16T22:06:24.462Z,3.03
2022-11-16T22:08:51.145Z,2.90
2022-11-16T22:11:21.977Z,3.03
2022-11-16T22:13:49.612Z,2.53
2022-11-16T22:16:17.222Z,2.60
2022-11-16T22:18:44.090Z,2.70
2022-11-16T22:21:11.460Z,2.72
2022-11-16T22:23:38.646Z,2.60
2022-11-16T22:26:10.954Z,2.72
2022-11-16T22:28:38.018Z,2.50
2022-11-16T22:31:14.931Z,3.17
2022-11-16T22:33:41.814Z,2.50
2022-11-16T22:36:10.294Z,2.50
2022-11-16T22:38:36.907Z,2.53
2022-11-16T22:41:03.614Z,3.10
2022-11-16T22:43:31.291Z,2.70
2022-11-16T22:46:04.343Z,2.47
2022-11-16T22:48:32.706Z,2.70
2022-11-16T22:51:15.336Z,3.10
2022-11-16T22:53:41.910Z,2.65
2022-11-16T22:56:09.774Z,3.13
2022-11-16T22:58:37.685Z,2.55
2022-11-16T23:01:05.738Z,2.63
2022-11-16T23:03:32.548Z,2.25
2022-11-16T23:05:59.818Z,2.60
2022-11-16T23:08:26.830Z,2.90
2022-11-16T23:11:24.308Z,2.60
2022-11-16T23:14:10.239Z,2.90
2022-11-16T23:16:37.650Z,2.80
2022-11-16T23:19:24.226Z,2.60
2022-11-16T23:22:09.411Z,2.70
2022-11-16T23:24:54.193Z,2.70
2022-11-16T23:27:29.673Z,2.30
2022-11-16T23:30:09.215Z,2.53
2022-11-16T23:32:38.636Z,2.55
2022-11-16T23:35:05.628Z,3.00
2022-11-16T23:37:32.216Z,2.80
2022-11-16T23:39:58.870Z,2.70
2022-11-16T23:42:44.079Z,2.55
2022-11-16T23:45:10.739Z,2.40
2022-11-16T23:47:37.306Z,2.37
2022-11-16T23:50:04.378Z,2.55
2022-11-16T23:52:30.946Z,2.63
2022-11-16T23:54:57.592Z,2.40
2022-11-16T23:57:24.156Z,2.38
2022-11-16T23:59:50.798Z,2.47
